Time;durP1;ratioP1;P1;durP2;ratioP2;P2;SDS_P1;SDS_P2;PMS_P1;PMS_P2;Temp;Humidity;BMP_temperature;BMP_pressure;BME280_temperature;BME280_humidity;BME280_pressure;Samples;Min_cycle;Max_cycle;Signal;HPM_P1;HPM_P2
2022/07/08 00:01:33;;;;;;;0.50;0.40;;;22.70;55.50;;;;;;6173264;28;20074;-69
2022/07/08 00:04:34;;;;;;;0.88;0.50;;;22.70;55.50;;;;;;6173062;28;20038;-67
2022/07/08 00:07:35;;;;;;;0.40;0.40;;;22.70;55.50;;;;;;6172191;28;20031;-67
2022/07/08 00:10:36;;;;;;;0.75;0.60;;;22.70;55.50;;;;;;6173880;28;20030;-67
2022/07/08 00:13:36;;;;;;;0.77;0.45;;;22.70;55.50;;;;;;6171205;28;20069;-66
2022/07/08 00:16:43;;;;;;;0.98;0.47;;;22.70;55.50;;;;;;6172391;28;20058;-67
2022/07/08 00:19:43;;;;;;;0.65;0.50;;;22.70;55.60;;;;;;6172644;28;20022;-69
2022/07/08 00:22:44;;;;;;;1.48;0.60;;;22.60;55.50;;;;;;6173002;28;20033;-69
2022/07/08 00:25:45;;;;;;;0.80;0.32;;;22.60;55.40;;;;;;6171119;28;20127;-69
2022/07/08 00:28:45;;;;;;;0.73;0.55;;;22.70;55.60;;;;;;6171422;28;20022;-69
2022/07/08 00:31:46;;;;;;;0.60;0.40;;;22.70;55.60;;;;;;6171468;28;20470;-65
2022/07/08 00:34:47;;;;;;;2.03;0.57;;;22.70;55.60;;;;;;6172279;28;20094;-67
2022/07/08 00:37:47;;;;;;;0.68;0.60;;;22.60;55.40;;;;;;6171638;28;20031;-67
2022/07/08 00:40:48;;;;;;;1.17;0.50;;;22.70;55.50;;;;;;6171060;28;20034;-66
2022/07/08 00:43:49;;;;;;;0.57;0.40;;;22.70;55.60;;;;;;6170395;28;20053;-66
2022/07/08 00:46:49;;;;;;;0.80;0.65;;;22.70;55.50;;;;;;6170933;28;20130;-66
2022/07/08 00:49:51;;;;;;;1.25;0.63;;;22.60;55.40;;;;;;6170764;28;20047;-67
2022/07/08 00:52:52;;;;;;;0.50;0.50;;;22.60;55.40;;;;;;6171529;28;20034;-67
2022/07/08 00:55:53;;;;;;;1.45;0.50;;;22.60;55.40;;;;;;6171639;28;20034;-69
2022/07/08 00:58:54;;;;;;;0.75;0.60;;;22.60;55.50;;;;;;6172143;28;20035;-69
2022/07/08 01:01:55;;;;;;;1.45;0.55;;;22.60;55.50;;;;;;6171782;28;20492;-68
2022/07/08 01:04:55;;;;;;;0.40;0.40;;;22.60;55.50;;;;;;6171693;28;20070;-69
2022/07/08 01:07:56;;;;;;;0.98;0.65;;;22.70;55.60;;;;;;6171440;28;20022;-68
2022/07/08 01:10:57;;;;;;;1.48;0.60;;;22.60;55.50;;;;;;6171766;28;20537;-69
2022/07/08 01:13:58;;;;;;;1.45;0.60;;;22.60;55.50;;;;;;6170398;28;20027;-68
2022/07/08 01:16:58;;;;;;;1.38;0.70;;;22.60;55.50;;;;;;6170406;28;20158;-69
2022/07/08 01:19:59;;;;;;;1.50;0.75;;;22.60;55.50;;;;;;6170110;28;20027;-69
2022/07/08 01:23:00;;;;;;;1.30;0.73;;;22.60;55.50;;;;;;6171300;28;20062;-69
2022/07/08 01:26:10;;;;;;;0.95;0.55;;;22.60;55.50;;;;;;6165126;28;20023;-68
2022/07/08 01:29:11;;;;;;;0.60;0.40;;;22.60;55.50;;;;;;6169758;28;20035;-69
2022/07/08 01:32:12;;;;;;;1.17;0.60;;;22.60;55.50;;;;;;6169328;28;20031;-68
2022/07/08 01:35:13;;;;;;;1.35;0.68;;;22.60;55.50;;;;;;6169589;28;20031;-68
2022/07/08 01:38:13;;;;;;;1.08;0.68;;;22.60;55.50;;;;;;6170633;28;20086;-68
2022/07/08 01:41:14;;;;;;;0.57;0.50;;;22.60;55.50;;;;;;6169582;28;20327;-69
2022/07/08 01:44:14;;;;;;;0.95;0.55;;;22.60;55.50;;;;;;6169541;28;20481;-69
2022/07/08 01:47:15;;;;;;;0.68;0.60;;;22.60;55.50;;;;;;6169359;28;20057;-69
2022/07/08 01:50:16;;;;;;;1.02;0.55;;;22.60;55.50;;;;;;6170682;28;20465;-69
2022/07/08 01:53:17;;;;;;;1.10;0.52;;;22.60;55.50;;;;;;6170453;28;20122;-69
2022/07/08 01:56:17;;;;;;;4.32;0.82;;;22.60;55.50;;;;;;6169296;28;20511;-69
2022/07/08 01:59:18;;;;;;;0.57;0.40;;;22.60;55.50;;;;;;6168915;28;20031;-69
2022/07/08 02:02:21;;;;;;;0.70;0.55;;;22.60;55.60;;;;;;6169738;28;20037;-69
2022/07/08 02:05:22;;;;;;;0.60;0.52;;;22.60;55.50;;;;;;6168616;28;20089;-69
2022/07/08 02:08:23;;;;;;;1.08;0.73;;;22.60;55.50;;;;;;6169299;28;20023;-69
2022/07/08 02:14:43;;;;;;;1.25;0.50;;;22.60;55.60;;;;;;6169666;28;20129;-68
2022/07/08 02:17:44;;;;;;;0.77;0.40;;;22.60;55.60;;;;;;6170967;28;20066;-69
2022/07/08 02:20:45;;;;;;;0.95;0.55;;;22.60;55.60;;;;;;6170528;28;20034;-69
2022/07/08 02:23:45;;;;;;;0.70;0.60;;;22.60;55.60;;;;;;6168959;28;20046;-69
2022/07/08 02:26:46;;;;;;;0.73;0.50;;;22.60;55.60;;;;;;6157554;28;20362;-69
2022/07/08 02:29:47;;;;;;;1.73;0.70;;;22.60;55.60;;;;;;6169662;28;20126;-69
2022/07/08 02:32:47;;;;;;;0.90;0.65;;;22.60;55.60;;;;;;6168266;28;20030;-69
2022/07/08 02:35:48;;;;;;;0.95;0.55;;;22.60;55.50;;;;;;6168934;28;20022;-68
2022/07/08 02:38:48;;;;;;;1.65;0.55;;;22.60;55.60;;;;;;6183565;28;20644;-67
2022/07/08 02:41:49;;;;;;;1.10;0.68;;;22.60;55.60;;;;;;6170069;28;20023;-67
2022/07/08 02:44:50;;;;;;;0.77;0.60;;;22.60;55.60;;;;;;6169568;28;20038;-67
2022/07/08 02:47:50;;;;;;;0.55;0.50;;;22.60;55.60;;;;;;6169295;28;20043;-67
2022/07/08 02:50:51;;;;;;;0.68;0.50;;;22.60;55.60;;;;;;6169949;28;20555;-67
2022/07/08 02:53:52;;;;;;;0.80;0.50;;;22.60;56.20;;;;;;6170126;28;20026;-68
2022/07/08 02:56:53;;;;;;;0.70;0.52;;;22.60;55.60;;;;;;6170354;28;20019;-68
2022/07/08 02:59:53;;;;;;;0.35;0.30;;;22.60;55.60;;;;;;6169671;28;20030;-69
2022/07/08 03:02:54;;;;;;;1.13;0.60;;;22.60;55.60;;;;;;6168875;28;20130;-69
2022/07/08 03:05:55;;;;;;;1.00;0.60;;;22.60;55.60;;;;;;6168461;28;20030;-68
2022/07/08 03:08:55;;;;;;;0.70;0.50;;;22.60;55.60;;;;;;6169845;28;20034;-69
2022/07/08 03:11:56;;;;;;;0.75;0.50;;;22.60;55.60;;;;;;6172778;28;20081;-69
2022/07/08 03:14:56;;;;;;;1.25;0.70;;;22.60;55.60;;;;;;6172663;28;20434;-68
2022/07/08 03:17:57;;;;;;;0.77;0.60;;;22.60;55.60;;;;;;6173013;28;20101;-68
2022/07/08 03:20:58;;;;;;;0.73;0.60;;;22.60;55.60;;;;;;6172779;28;20042;-68
2022/07/08 03:23:58;;;;;;;0.55;0.50;;;22.60;55.60;;;;;;6172394;28;20138;-68
2022/07/08 03:26:59;;;;;;;1.38;0.60;;;22.60;55.60;;;;;;6172358;28;20105;-68
2022/07/08 03:30:00;;;;;;;0.82;0.52;;;22.60;55.60;;;;;;6172847;28;20029;-68
2022/07/08 03:33:00;;;;;;;1.08;0.40;;;22.60;55.60;;;;;;6171745;28;20090;-69
2022/07/08 03:36:01;;;;;;;0.73;0.50;;;22.60;55.60;;;;;;6171986;28;20035;-69
2022/07/08 03:39:01;;;;;;;1.08;0.52;;;22.60;55.60;;;;;;6172212;28;20079;-68
2022/07/08 03:42:02;;;;;;;0.52;0.52;;;22.60;55.60;;;;;;6172669;28;20038;-68
2022/07/08 03:45:03;;;;;;;1.75;0.60;;;22.60;55.60;;;;;;6172197;28;20035;-68
2022/07/08 03:48:04;;;;;;;0.57;0.50;;;22.60;55.60;;;;;;6171754;28;20059;-69
2022/07/08 03:51:05;;;;;;;0.75;0.50;;;22.60;55.60;;;;;;6171652;28;20110;-69
2022/07/08 03:54:06;;;;;;;0.88;0.75;;;22.60;55.60;;;;;;6171093;28;20073;-68
2022/07/08 03:57:07;;;;;;;1.20;0.60;;;22.60;55.60;;;;;;6172213;28;20401;-68
2022/07/08 04:00:08;;;;;;;1.17;0.60;;;22.60;55.60;;;;;;6172707;28;20046;-69
2022/07/08 04:03:09;;;;;;;0.95;0.52;;;22.60;55.60;;;;;;6173108;28;20029;-66
2022/07/08 04:06:09;;;;;;;0.95;0.50;;;22.60;55.60;;;;;;6173084;28;20027;-66
2022/07/08 04:09:10;;;;;;;0.80;0.40;;;22.60;55.60;;;;;;6172751;28;20034;-67
2022/07/08 04:12:11;;;;;;;0.50;0.50;;;22.60;55.60;;;;;;6172975;28;20556;-66
2022/07/08 04:15:13;;;;;;;0.73;0.60;;;22.60;55.60;;;;;;6172612;28;20060;-66
2022/07/08 04:18:14;;;;;;;1.05;0.60;;;22.60;55.60;;;;;;6173082;28;20114;-69
2022/07/08 04:21:15;;;;;;;0.82;0.50;;;22.60;55.60;;;;;;6171128;28;20427;-69
2022/07/08 04:24:15;;;;;;;1.63;0.60;;;22.60;55.60;;;;;;6171119;28;20243;-69
2022/07/08 04:27:16;;;;;;;0.77;0.68;;;22.60;55.60;;;;;;6170994;28;20050;-69
2022/07/08 04:30:16;;;;;;;1.77;0.65;;;22.60;55.60;;;;;;6170996;28;20027;-69
2022/07/08 04:33:17;;;;;;;1.17;0.63;;;22.60;55.60;;;;;;6171109;28;20019;-68
2022/07/08 04:36:18;;;;;;;1.40;0.68;;;22.60;55.60;;;;;;6170457;28;20027;-69
2022/07/08 04:39:18;;;;;;;1.08;0.57;;;22.60;55.60;;;;;;6171934;28;20037;-69
2022/07/08 04:42:19;;;;;;;0.65;0.60;;;22.60;55.60;;;;;;6170921;28;20397;-69
2022/07/08 04:45:20;;;;;;;0.70;0.50;;;22.60;55.60;;;;;;6170529;28;20038;-69
2022/07/08 04:48:21;;;;;;;0.65;0.50;;;22.60;55.60;;;;;;6170863;28;20065;-69
2022/07/08 04:51:22;;;;;;;0.65;0.55;;;22.60;55.60;;;;;;6171652;28;20385;-69
2022/07/08 04:54:23;;;;;;;0.60;0.60;;;22.60;55.60;;;;;;6170523;28;20027;-69
2022/07/08 04:57:23;;;;;;;0.85;0.50;;;22.60;55.70;;;;;;6170757;28;20054;-68
2022/07/08 05:00:39;;;;;;;0.73;0.50;;;22.60;55.60;;;;;;6160012;28;20068;-69
2022/07/08 05:03:40;;;;;;;0.60;0.47;;;22.60;55.60;;;;;;6167139;28;20121;-69
2022/07/08 05:06:41;;;;;;;0.57;0.40;;;22.60;55.60;;;;;;6156971;28;20078;-69
2022/07/08 05:09:42;;;;;;;0.68;0.60;;;22.60;55.60;;;;;;6169297;28;20027;-69
2022/07/08 05:12:44;;;;;;;0.57;0.50;;;22.60;56.30;;;;;;6168880;28;20069;-69
2022/07/08 05:15:45;;;;;;;8.38;1.17;;;22.60;55.60;;;;;;6168219;28;20110;-69
2022/07/08 05:18:46;;;;;;;2.58;1.08;;;22.60;55.30;;;;;;6168331;28;20595;-68
2022/07/08 05:21:47;;;;;;;3.58;1.05;;;22.60;55.00;;;;;;6154022;28;20031;-69
2022/07/08 05:24:47;;;;;;;8.23;1.13;;;22.60;55.30;;;;;;6158529;28;20114;-68
2022/07/08 05:27:48;;;;;;;7.00;1.00;;;22.60;55.20;;;;;;6158867;28;20486;-69
2022/07/08 05:30:49;;;;;;;4.45;1.00;;;22.60;55.10;;;;;;6170129;28;20046;-69
2022/07/08 05:33:50;;;;;;;2.88;1.13;;;22.60;55.10;;;;;;6168962;28;20026;-68
2022/07/08 05:36:51;;;;;;;3.53;1.35;;;22.60;55.20;;;;;;6165062;28;20026;-68
2022/07/08 05:39:51;;;;;;;12.23;2.40;;;22.60;55.10;;;;;;6163051;28;20019;-69
2022/07/08 05:42:52;;;;;;;13.32;2.83;;;22.60;55.00;;;;;;6168993;28;20936;-68
2022/07/08 05:45:52;;;;;;;11.82;2.33;;;22.60;54.60;;;;;;6168910;28;20031;-69
2022/07/08 05:48:53;;;;;;;8.02;2.08;;;22.60;54.60;;;;;;6159237;28;20398;-69
2022/07/08 05:51:54;;;;;;;7.25;2.00;;;22.60;54.80;;;;;;6169530;28;20030;-68
2022/07/08 05:54:55;;;;;;;7.25;2.42;;;22.60;55.00;;;;;;6168672;28;20023;-69
2022/07/08 05:57:55;;;;;;;8.43;1.98;;;22.60;55.00;;;;;;6169593;28;20034;-69
2022/07/08 06:00:56;;;;;;;8.02;2.35;;;22.60;54.90;;;;;;6170365;28;20030;-69
2022/07/08 06:03:57;;;;;;;7.28;1.95;;;22.60;54.80;;;;;;6171517;28;20034;-69
2022/07/08 06:06:57;;;;;;;5.22;1.55;;;22.60;54.90;;;;;;6171705;28;20034;-69
2022/07/08 06:10:00;;;;;;;5.28;1.58;;;22.60;54.90;;;;;;6171184;28;20547;-69
2022/07/08 06:13:00;;;;;;;3.10;1.30;;;22.60;55.10;;;;;;6171391;28;20119;-68
2022/07/08 06:16:01;;;;;;;4.70;1.65;;;22.60;55.90;;;;;;6170854;28;20027;-69
2022/07/08 06:19:02;;;;;;;5.95;1.67;;;22.60;55.30;;;;;;6171173;28;20027;-69
2022/07/08 06:22:02;;;;;;;6.95;2.17;;;22.60;55.20;;;;;;6170844;28;20026;-69
2022/07/08 06:25:05;;;;;;;3.42;1.48;;;22.50;55.20;;;;;;6152307;28;20070;-69
2022/07/08 06:28:06;;;;;;;3.33;1.20;;;22.60;55.30;;;;;;6171015;28;20062;-69
2022/07/08 06:31:06;;;;;;;5.43;1.27;;;22.60;55.40;;;;;;6162155;28;20015;-68
2022/07/08 06:34:07;;;;;;;1.75;1.10;;;22.60;55.30;;;;;;6154122;28;20270;-68
2022/07/08 06:37:08;;;;;;;3.05;1.23;;;22.60;55.40;;;;;;6161496;28;20043;-68
2022/07/08 06:40:10;;;;;;;4.78;1.65;;;22.60;55.40;;;;;;6169076;28;20019;-69
2022/07/08 06:43:11;;;;;;;5.25;1.50;;;22.60;55.40;;;;;;6162623;28;20061;-66
2022/07/08 06:46:12;;;;;;;3.75;1.40;;;22.60;55.40;;;;;;6175611;28;20022;-69
2022/07/08 06:49:12;;;;;;;2.97;1.23;;;22.60;55.40;;;;;;6165460;28;20059;-68
2022/07/08 06:52:13;;;;;;;2.78;1.30;;;22.60;55.40;;;;;;6175340;28;20374;-69
2022/07/08 06:55:14;;;;;;;3.65;1.13;;;22.60;55.40;;;;;;6174282;28;20130;-69
2022/07/08 06:58:14;;;;;;;3.60;1.17;;;22.60;55.50;;;;;;6175606;28;20057;-69
2022/07/08 07:01:15;;;;;;;3.70;1.33;;;22.60;55.40;;;;;;6175443;28;20023;-69
2022/07/08 07:04:15;;;;;;;2.72;1.25;;;22.60;55.50;;;;;;6170559;28;20031;-68
2022/07/08 07:07:16;;;;;;;3.17;1.55;;;22.60;55.50;;;;;;6151115;28;20059;-69
2022/07/08 07:10:17;;;;;;;3.05;1.30;;;22.60;55.60;;;;;;6167994;28;20054;-69
2022/07/08 07:13:17;;;;;;;2.63;1.20;;;22.60;55.50;;;;;;6175015;28;20031;-69
2022/07/08 07:16:18;;;;;;;2.05;0.90;;;22.60;55.60;;;;;;6174463;28;20066;-69
2022/07/08 07:19:19;;;;;;;1.67;1.20;;;22.60;55.60;;;;;;6174783;28;20027;-69
2022/07/08 07:22:19;;;;;;;2.70;1.02;;;22.60;55.50;;;;;;6174276;28;20536;-69
2022/07/08 07:25:20;;;;;;;2.38;1.10;;;22.60;55.60;;;;;;6164326;28;20130;-67
2022/07/08 07:28:21;;;;;;;1.55;0.80;;;22.60;55.60;;;;;;6174153;28;21042;-66
2022/07/08 07:31:21;;;;;;;2.10;1.02;;;22.60;55.60;;;;;;6174075;28;20106;-67
2022/07/08 07:34:22;;;;;;;3.20;1.08;;;22.60;55.60;;;;;;6174727;28;20469;-67
2022/07/08 07:37:23;;;;;;;2.42;1.10;;;22.60;55.60;;;;;;6174563;28;20386;-67
2022/07/08 07:40:23;;;;;;;2.42;1.10;;;22.60;55.60;;;;;;6174359;28;20140;-67
2022/07/08 07:43:24;;;;;;;2.40;1.10;;;22.60;55.60;;;;;;6173875;28;20425;-67
2022/07/08 07:46:24;;;;;;;1.83;1.00;;;22.60;55.60;;;;;;6173823;28;20777;-67
2022/07/08 07:49:25;;;;;;;2.03;1.10;;;22.60;55.60;;;;;;6174378;28;20054;-67
2022/07/08 07:52:26;;;;;;;4.50;1.50;;;22.60;55.60;;;;;;6173775;28;20027;-66
2022/07/08 07:55:27;;;;;;;2.08;1.05;;;22.50;55.50;;;;;;6172947;28;20030;-69
2022/07/08 07:58:27;;;;;;;1.63;0.70;;;22.60;55.60;;;;;;6173596;28;20066;-69
2022/07/08 08:01:28;;;;;;;1.30;0.90;;;22.60;55.60;;;;;;6174076;28;20029;-69
2022/07/08 08:04:29;;;;;;;1.73;0.80;;;22.60;55.60;;;;;;6174069;28;20030;-68
2022/07/08 08:07:29;;;;;;;1.25;0.90;;;22.60;55.60;;;;;;6173699;28;20022;-69
2022/07/08 08:10:30;;;;;;;1.45;0.90;;;22.50;55.60;;;;;;6173703;28;20102;-69
2022/07/08 08:13:31;;;;;;;2.63;0.98;;;22.60;55.60;;;;;;6173710;28;20188;-69
2022/07/08 08:16:32;;;;;;;2.10;1.00;;;22.60;55.60;;;;;;6173434;28;20066;-68
2022/07/08 08:19:32;;;;;;;1.77;1.00;;;22.50;55.50;;;;;;6173617;28;20031;-68
2022/07/08 08:22:33;;;;;;;1.05;0.65;;;22.50;55.60;;;;;;6173150;28;20031;-69
2022/07/08 08:25:34;;;;;;;1.80;0.98;;;22.60;55.60;;;;;;6158196;28;20063;-69
2022/07/08 08:28:35;;;;;;;1.80;0.80;;;22.50;55.60;;;;;;6172931;28;20019;-68
2022/07/08 08:31:35;;;;;;;1.67;0.80;;;22.60;55.60;;;;;;6172798;28;20560;-68
2022/07/08 08:34:36;;;;;;;2.50;1.08;;;22.60;55.60;;;;;;6173227;28;20404;-69
2022/07/08 08:37:37;;;;;;;2.20;1.02;;;22.50;55.60;;;;;;6172246;28;20039;-69
2022/07/08 08:40:40;;;;;;;1.98;1.17;;;22.60;55.70;;;;;;6173180;28;20030;-69
2022/07/08 08:43:41;;;;;;;1.80;0.98;;;22.60;55.70;;;;;;6172207;28;20121;-68
2022/07/08 08:46:44;;;;;;;2.88;0.90;;;22.60;55.60;;;;;;6171879;28;20089;-68
2022/07/08 08:49:45;;;;;;;1.70;0.80;;;22.60;55.70;;;;;;6171892;28;20105;-69
2022/07/08 08:52:52;;;;;;;1.48;0.80;;;22.50;55.60;;;;;;6171561;28;20019;-69
2022/07/08 08:55:55;;;;;;;1.83;1.17;;;22.50;55.60;;;;;;6172044;28;20015;-68
2022/07/08 08:58:56;;;;;;;1.80;0.90;;;22.60;55.70;;;;;;6172329;28;20374;-68
2022/07/08 09:01:57;;;;;;;1.83;0.77;;;22.60;55.60;;;;;;6171068;28;20042;-69
2022/07/08 09:04:58;;;;;;;1.33;0.75;;;22.50;55.60;;;;;;6172639;28;20106;-68
2022/07/08 09:07:58;;;;;;;1.73;0.70;;;22.50;55.60;;;;;;6170988;28;20027;-69
2022/07/08 09:10:59;;;;;;;1.90;0.90;;;22.50;55.50;;;;;;6172572;28;20037;-68
2022/07/08 09:14:20;;;;;;;4.60;1.20;;;22.50;55.10;;;;;;6172162;28;20026;-68
2022/07/08 09:17:21;;;;;;;3.97;1.17;;;22.50;54.80;;;;;;6171397;28;20026;-69
2022/07/08 09:20:22;;;;;;;3.05;1.15;;;22.50;54.90;;;;;;6172374;28;20055;-68
2022/07/08 09:23:26;;;;;;;5.53;1.50;;;22.50;54.80;;;;;;6171294;28;20538;-68
2022/07/08 09:26:28;;;;;;;3.85;1.77;;;22.50;54.40;;;;;;6157177;28;20046;-68
2022/07/08 09:29:28;;;;;;;3.80;1.40;;;22.50;54.30;;;;;;6171467;28;20493;-68
2022/07/08 09:32:29;;;;;;;5.20;1.48;;;22.50;53.70;;;;;;6172022;28;20066;-68
2022/07/08 09:35:34;;;;;;;11.05;2.50;;;22.50;53.80;;;;;;6172906;28;20046;-68
2022/07/08 09:38:37;;;;;;;12.07;3.17;;;22.50;53.00;;;;;;6171572;28;20027;-68
2022/07/08 09:41:47;;;;;;;7.20;2.58;;;22.50;52.60;;;;;;6171955;28;20025;-69
2022/07/08 09:44:52;;;;;;;8.45;2.03;;;22.50;52.50;;;;;;6171655;28;20031;-68
2022/07/08 09:47:59;;;;;;;;;;;22.50;52.50;;;;;;6172149;28;20043;-68
2022/07/08 09:51:07;;;;;;;9.73;2.88;;;22.50;52.90;;;;;;6171935;28;20508;-68
2022/07/08 09:54:09;;;;;;;6.35;1.88;;;22.50;52.40;;;;;;6171135;28;20118;-68
2022/07/08 09:57:11;;;;;;;10.75;2.80;;;22.50;52.50;;;;;;6171147;28;20133;-69
2022/07/08 10:00:12;;;;;;;7.40;2.20;;;22.50;52.60;;;;;;6171441;28;20018;-69
2022/07/08 10:03:13;;;;;;;6.80;1.80;;;22.50;52.60;;;;;;6171417;28;20033;-68
2022/07/08 10:06:13;;;;;;;5.82;1.83;;;22.50;53.30;;;;;;6171455;28;20478;-68
2022/07/08 10:09:14;;;;;;;7.03;1.90;;;22.50;52.90;;;;;;6170326;28;20117;-69
2022/07/08 10:12:16;;;;;;;9.48;2.10;;;22.50;52.80;;;;;;6170988;28;20105;-68
2022/07/08 10:15:18;;;;;;;8.75;1.98;;;22.50;53.20;;;;;;6170328;28;20497;-68
2022/07/08 10:18:25;;;;;;;12.85;2.83;;;22.50;53.00;;;;;;6170569;28;20030;-69
2022/07/08 10:21:28;;;;;;;3.92;1.58;;;22.50;53.00;;;;;;6175271;28;20090;-68
2022/07/08 10:24:32;;;;;;;5.63;1.85;;;22.50;53.70;;;;;;6168279;28;20031;-68
2022/07/08 10:27:35;;;;;;;7.87;2.40;;;22.50;52.40;;;;;;6169310;28;20050;-68
2022/07/08 10:30:51;;;;;;;10.13;2.95;;;22.50;52.20;;;;;;6175624;28;20033;-69
2022/07/08 10:34:00;;;;;;;12.68;2.83;;;22.50;52.70;;;;;;6176132;28;20115;-69
2022/07/08 10:37:02;;;;;;;5.45;1.80;;;22.50;52.30;;;;;;6175895;28;20027;-69
2022/07/08 10:40:03;;;;;;;14.60;3.13;;;22.50;52.50;;;;;;6175604;28;20023;-69
2022/07/08 10:43:20;;;;;;;7.45;2.15;;;22.50;52.30;;;;;;6175686;28;20601;-69
2022/07/08 10:46:24;;;;;;;6.88;2.45;;;22.50;52.10;;;;;;6175799;28;20069;-69
2022/07/08 10:49:41;;;;;;;9.75;2.83;;;22.50;51.90;;;;;;6175250;28;20054;-69
2022/07/08 10:52:42;;;;;;;10.27;2.50;;;22.50;52.20;;;;;;6175584;28;20035;-69
2022/07/08 10:55:43;;;;;;;10.07;2.72;;;22.50;52.20;;;;;;6174269;28;20536;-69
2022/07/08 10:59:19;;;;;;;11.73;3.75;;;22.50;52.50;;;;;;6175169;28;20031;-68
2022/07/08 11:02:21;;;;;;;9.50;2.45;;;22.50;52.40;;;;;;6125475;28;20586;-68
2022/07/08 11:05:41;;;;;;;7.95;2.38;;;22.50;52.50;;;;;;6174897;28;20438;-69
2022/07/08 11:09:01;;;;;;;9.40;3.05;;;22.50;52.40;;;;;;6175284;28;20030;-69
2022/07/08 11:12:03;;;;;;;9.38;2.47;;;22.50;52.30;;;;;;6151203;29;20418;-69
2022/07/08 11:15:19;;;;;;;5.60;1.98;;;22.50;52.30;;;;;;6159836;28;20033;-69
2022/07/08 11:18:21;;;;;;;6.95;2.13;;;22.50;52.10;;;;;;6175129;28;20026;-68
2022/07/08 11:21:22;;;;;;;8.30;2.20;;;22.50;52.10;;;;;;6174994;28;20524;-69
2022/07/08 11:24:23;;;;;;;9.40;2.55;;;22.50;52.20;;;;;;6169921;28;20031;-68
2022/07/08 11:27:26;;;;;;;6.40;1.92;;;22.50;51.70;;;;;;6174978;28;20042;-69
2022/07/08 11:30:33;;;;;;;9.43;2.03;;;22.50;51.90;;;;;;6172804;28;20033;-69
2022/07/08 11:33:41;;;;;;;7.78;2.17;;;22.50;51.90;;;;;;6174637;28;20107;-69
2022/07/08 11:36:55;;;;;;;8.82;2.00;;;22.50;51.90;;;;;;6174495;28;20034;-69
2022/07/08 11:39:56;;;;;;;6.82;2.10;;;22.50;51.80;;;;;;6174182;28;20030;-68
2022/07/08 11:42:57;;;;;;;11.00;2.78;;;22.50;51.90;;;;;;6174576;28;20030;-69
2022/07/08 11:45:58;;;;;;;10.60;2.33;;;22.50;51.70;;;;;;6174341;28;20027;-68
2022/07/08 11:49:04;;;;;;;6.68;2.08;;;22.50;51.90;;;;;;6174177;28;20237;-69
2022/07/08 11:52:05;;;;;;;13.13;2.80;;;22.50;51.70;;;;;;6173677;28;20023;-68
2022/07/08 11:55:07;;;;;;;7.57;1.73;;;22.50;51.80;;;;;;6173366;28;20556;-69
2022/07/08 11:58:08;;;;;;;6.38;1.65;;;22.50;52.00;;;;;;6173708;28;20027;-68
2022/07/08 12:01:09;;;;;;;7.43;2.33;;;22.50;51.80;;;;;;6173986;28;20102;-68
2022/07/08 12:04:09;;;;;;;7.47;2.08;;;22.50;51.90;;;;;;6173230;28;20043;-68
2022/07/08 12:07:27;;;;;;;12.38;2.15;;;22.50;51.80;;;;;;6173509;28;20205;-68
2022/07/08 12:10:28;;;;;;;6.07;1.95;;;22.50;51.70;;;;;;6173687;28;20532;-69
2022/07/08 12:13:45;;;;;;;7.88;2.30;;;22.50;51.50;;;;;;6173796;28;20031;-69
2022/07/08 12:16:54;;;;;;;9.15;2.40;;;22.50;51.70;;;;;;6173645;28;20034;-68
2022/07/08 12:19:58;;;;;;;7.82;2.30;;;22.50;51.60;;;;;;6173753;28;20055;-68
2022/07/08 12:22:59;;;;;;;7.20;2.40;;;22.50;51.00;;;;;;6173340;28;20536;-70
2022/07/08 12:26:04;;;;;;;6.70;2.05;;;22.50;51.40;;;;;;6172811;28;20105;-68
2022/07/08 12:29:14;;;;;;;4.57;1.55;;;22.50;51.80;;;;;;6173156;28;20031;-68
2022/07/08 12:32:15;;;;;;;6.05;1.80;;;22.50;51.80;;;;;;6172974;28;20089;-69
2022/07/08 12:35:15;;;;;;;13.38;2.10;;;22.50;51.40;;;;;;6173428;28;20022;-68
2022/07/08 12:38:21;;;;;;;10.65;2.03;;;22.50;50.60;;;;;;6173544;28;20709;-68
2022/07/08 12:41:22;;;;;;;8.00;1.45;;;22.50;49.80;;;;;;6172438;28;20082;-68
2022/07/08 12:44:30;;;;;;;5.93;1.90;;;22.50;49.70;;;;;;6171545;28;20038;-69
2022/07/08 12:47:30;;;;;;;11.43;1.98;;;22.50;49.70;;;;;;6171990;28;20053;-69
2022/07/08 12:50:33;;;;;;;25.10;2.58;;;22.50;50.30;;;;;;6172937;28;20055;-68
2022/07/08 12:53:34;;;;;;;8.55;2.30;;;22.50;50.10;;;;;;6168895;28;20070;-69
2022/07/08 12:56:34;;;;;;;5.55;2.03;;;22.50;52.60;;;;;;6170194;28;20023;-68
2022/07/08 12:59:35;;;;;;;4.00;1.42;;;22.50;53.00;;;;;;6170939;28;20045;-69
2022/07/08 13:02:36;;;;;;;3.08;1.40;;;22.50;53.00;;;;;;6171715;28;20027;-68
2022/07/08 13:05:37;;;;;;;2.50;1.13;;;22.50;53.10;;;;;;6171175;28;20034;-68
2022/07/08 13:08:37;;;;;;;4.63;1.55;;;22.50;53.30;;;;;;6170863;28;20050;-68
2022/07/08 13:11:40;;;;;;;4.38;1.52;;;22.40;53.30;;;;;;6170943;28;20094;-68
2022/07/08 13:14:40;;;;;;;5.72;1.10;;;22.50;53.40;;;;;;6170727;28;20032;-68
2022/07/08 13:17:41;;;;;;;3.90;1.13;;;22.40;53.30;;;;;;6170579;28;20037;-68
2022/07/08 13:20:41;;;;;;;4.95;1.60;;;22.40;53.50;;;;;;6171402;28;20037;-68
2022/07/08 13:23:42;;;;;;;3.67;1.33;;;22.50;53.50;;;;;;6170216;28;20034;-68
2022/07/08 13:26:43;;;;;;;3.15;1.33;;;22.40;53.50;;;;;;6170583;28;20030;-69
2022/07/08 13:29:43;;;;;;;5.72;1.33;;;22.50;53.50;;;;;;6170517;28;20038;-67
2022/07/08 13:32:44;;;;;;;4.50;1.42;;;22.50;53.60;;;;;;6170614;28;20081;-68
2022/07/08 13:35:45;;;;;;;5.32;1.45;;;22.50;53.70;;;;;;6170624;28;20532;-69
2022/07/08 13:38:46;;;;;;;3.00;1.10;;;22.40;53.70;;;;;;6171136;28;20026;-69
2022/07/08 13:41:46;;;;;;;2.75;1.10;;;22.40;53.70;;;;;;6169588;28;20508;-69
2022/07/08 13:44:47;;;;;;;2.60;1.13;;;22.50;53.90;;;;;;6171014;28;20071;-68
2022/07/08 13:47:48;;;;;;;2.38;1.02;;;22.50;53.90;;;;;;6170573;28;20023;-69
2022/07/08 13:50:48;;;;;;;2.47;1.05;;;22.40;53.80;;;;;;6169317;28;20042;-69
2022/07/08 13:53:49;;;;;;;1.85;0.90;;;22.50;53.90;;;;;;6168923;28;20023;-67
2022/07/08 13:56:50;;;;;;;2.88;1.02;;;22.40;53.90;;;;;;6169678;28;20031;-68
2022/07/08 13:59:50;;;;;;;5.03;1.67;;;22.50;54.00;;;;;;6169600;28;20035;-68
2022/07/08 14:02:53;;;;;;;2.55;1.10;;;22.50;54.10;;;;;;6169823;28;20069;-68
2022/07/08 14:05:54;;;;;;;2.83;1.20;;;22.40;54.00;;;;;;6170062;28;20041;-68
2022/07/08 14:08:55;;;;;;;1.80;0.80;;;22.50;54.10;;;;;;6168861;28;20027;-67
2022/07/08 14:11:55;;;;;;;4.40;1.27;;;22.40;54.20;;;;;;6169355;28;20393;-68
2022/07/08 14:14:58;;;;;;;1.83;1.08;;;22.40;54.10;;;;;;6170549;28;20054;-67
2022/07/08 14:17:59;;;;;;;2.75;0.88;;;22.40;54.10;;;;;;6169629;28;20039;-67
2022/07/08 14:20:59;;;;;;;2.25;0.93;;;22.40;54.10;;;;;;6170060;28;20019;-67
2022/07/08 14:24:00;;;;;;;4.57;0.80;;;22.40;54.20;;;;;;6170386;28;20043;-68
2022/07/08 14:27:04;;;;;;;1.70;1.00;;;22.50;54.20;;;;;;6169442;28;20030;-68
2022/07/08 14:30:05;;;;;;;3.75;0.95;;;22.40;54.20;;;;;;6170573;28;20031;-67
2022/07/08 14:33:06;;;;;;;2.38;0.98;;;22.40;54.20;;;;;;6169657;28;20070;-68
2022/07/08 14:36:06;;;;;;;1.85;1.00;;;22.40;54.20;;;;;;6170420;28;20023;-68
2022/07/08 14:39:07;;;;;;;1.25;0.90;;;22.40;54.30;;;;;;6170195;28;20030;-68
2022/07/08 14:42:08;;;;;;;2.70;0.90;;;22.40;54.30;;;;;;6170428;28;20056;-68
2022/07/08 14:45:09;;;;;;;2.63;1.05;;;22.40;54.30;;;;;;6159883;28;20068;-68
2022/07/08 14:48:09;;;;;;;4.07;0.75;;;22.40;54.30;;;;;;6169789;28;20058;-68
2022/07/08 14:51:10;;;;;;;4.05;0.90;;;22.40;54.30;;;;;;6170569;28;20086;-67
2022/07/08 14:54:10;;;;;;;1.27;0.90;;;22.40;54.30;;;;;;6170249;28;20027;-67
2022/07/08 14:57:11;;;;;;;1.38;0.88;;;22.40;54.30;;;;;;6169786;28;20031;-67
2022/07/08 15:00:12;;;;;;;0.88;0.70;;;22.40;54.40;;;;;;6169769;28;20524;-67
2022/07/08 15:03:13;;;;;;;2.70;0.70;;;22.40;54.40;;;;;;6169382;28;20055;-67
2022/07/08 15:06:14;;;;;;;1.58;0.80;;;22.40;54.40;;;;;;6173497;28;20027;-68
2022/07/08 15:09:15;;;;;;;1.75;0.80;;;22.40;54.40;;;;;;6161192;28;20050;-67
2022/07/08 15:12:15;;;;;;;2.35;1.08;;;22.40;54.40;;;;;;6149501;29;20062;-68
2022/07/08 15:15:17;;;;;;;1.35;0.80;;;22.40;54.50;;;;;;6168287;28;20093;-67
2022/07/08 15:18:17;;;;;;;0.75;0.60;;;22.40;54.40;;;;;;6165836;28;20027;-67
2022/07/08 15:21:18;;;;;;;2.05;0.90;;;22.40;54.50;;;;;;6172917;28;20034;-68
2022/07/08 15:24:19;;;;;;;1.45;0.60;;;22.40;54.50;;;;;;6173513;28;20037;-67
2022/07/08 15:27:19;;;;;;;0.80;0.40;;;22.40;54.50;;;;;;6173772;28;20105;-67
2022/07/08 15:30:20;;;;;;;2.03;0.85;;;22.40;54.50;;;;;;6172999;28;20034;-67
2022/07/08 15:33:21;;;;;;;1.02;0.70;;;22.40;54.50;;;;;;6155544;28;20030;-67
2022/07/08 15:36:21;;;;;;;0.70;0.60;;;22.40;54.60;;;;;;6164601;28;20057;-68
2022/07/08 15:39:22;;;;;;;1.60;0.88;;;22.40;54.50;;;;;;6174074;28;20022;-68
2022/07/08 15:42:22;;;;;;;1.90;0.80;;;22.40;54.50;;;;;;6173755;28;20129;-67
2022/07/08 15:45:27;;;;;;;3.42;0.95;;;22.40;54.60;;;;;;6172986;28;20038;-68
2022/07/08 15:48:27;;;;;;;1.42;0.70;;;22.40;54.60;;;;;;6173229;28;20042;-68